sensor_id;sensor_type;location;lat;lon;timestamp;P1;durP1;ratioP1;P2;durP2;ratioP2
62903;SDS011;49000;50.698;13.322;2023-07-22T00:02:21;2.90;;;2.60;;
62903;SDS011;49000;50.698;13.322;2023-07-22T00:04:47;2.87;;;2.53;;
62903;SDS011;49000;50.698;13.322;2023-07-22T00:07:13;3.27;;;2.57;;
62903;SDS011;49000;50.698;13.322;2023-07-22T00:09:39;3.30;;;2.40;;
62903;SDS011;49000;50.698;13.322;2023-07-22T00:12:06;3.93;;;2.47;;
62903;SDS011;49000;50.698;13.322;2023-07-22T00:14:33;2.33;;;2.13;;
62903;SDS011;49000;50.698;13.322;2023-07-22T00:16:59;2.70;;;2.30;;
62903;SDS011;49000;50.698;13.322;2023-07-22T00:19:25;3.70;;;2.83;;
62903;SDS011;49000;50.698;13.322;2023-07-22T00:21:50;4.03;;;2.90;;
62903;SDS011;49000;50.698;13.322;2023-07-22T00:24:17;2.73;;;2.37;;
62903;SDS011;49000;50.698;13.322;2023-07-22T00:26:42;4.10;;;2.67;;
62903;SDS011;49000;50.698;13.322;2023-07-22T00:29:08;3.17;;;2.87;;
62903;SDS011;49000;50.698;13.322;2023-07-22T00:31:34;6.07;;;2.50;;
62903;SDS011;49000;50.698;13.322;2023-07-22T00:33:59;3.57;;;3.13;;
62903;SDS011;49000;50.698;13.322;2023-07-22T00:36:25;3.50;;;2.43;;
62903;SDS011;49000;50.698;13.322;2023-07-22T00:38:51;3.43;;;2.50;;
62903;SDS011;49000;50.698;13.322;2023-07-22T00:41:17;7.03;;;3.07;;
62903;SDS011;49000;50.698;13.322;2023-07-22T00:43:43;2.80;;;2.40;;
62903;SDS011;49000;50.698;13.322;2023-07-22T00:46:09;3.73;;;2.50;;
62903;SDS011;49000;50.698;13.322;2023-07-22T00:48:34;3.83;;;2.57;;
62903;SDS011;49000;50.698;13.322;2023-07-22T00:51:01;3.07;;;2.50;;
62903;SDS011;49000;50.698;13.322;2023-07-22T00:53:26;5.33;;;2.60;;
62903;SDS011;49000;50.698;13.322;2023-07-22T00:55:52;3.97;;;2.40;;
62903;SDS011;49000;50.698;13.322;2023-07-22T00:58:20;5.43;;;2.70;;
62903;SDS011;49000;50.698;13.322;2023-07-22T01:00:45;5.07;;;3.23;;
62903;SDS011;49000;50.698;13.322;2023-07-22T01:03:11;3.77;;;2.53;;
62903;SDS011;49000;50.698;13.322;2023-07-22T01:05:38;3.40;;;3.10;;
62903;SDS011;49000;50.698;13.322;2023-07-22T01:08:04;4.50;;;2.73;;
62903;SDS011;49000;50.698;13.322;2023-07-22T01:10:30;2.60;;;2.13;;
62903;SDS011;49000;50.698;13.322;2023-07-22T01:12:56;4.80;;;3.00;;
62903;SDS011;49000;50.698;13.322;2023-07-22T01:15:22;4.57;;;2.77;;
62903;SDS011;49000;50.698;13.322;2023-07-22T01:17:49;2.30;;;2.10;;
62903;SDS011;49000;50.698;13.322;2023-07-22T01:20:15;4.03;;;2.23;;
62903;SDS011;49000;50.698;13.322;2023-07-22T01:22:48;3.43;;;2.50;;
62903;SDS011;49000;50.698;13.322;2023-07-22T01:25:19;2.47;;;2.27;;
62903;SDS011;49000;50.698;13.322;2023-07-22T01:27:46;2.53;;;2.10;;
62903;SDS011;49000;50.698;13.322;2023-07-22T01:30:12;5.77;;;2.37;;
62903;SDS011;49000;50.698;13.322;2023-07-22T01:32:39;5.47;;;2.20;;
62903;SDS011;49000;50.698;13.322;2023-07-22T01:35:05;3.90;;;2.30;;
62903;SDS011;49000;50.698;13.322;2023-07-22T01:37:32;3.13;;;2.30;;
62903;SDS011;49000;50.698;13.322;2023-07-22T01:39:58;2.70;;;2.03;;
62903;SDS011;49000;50.698;13.322;2023-07-22T01:42:24;2.23;;;2.00;;
62903;SDS011;49000;50.698;13.322;2023-07-22T01:44:49;3.80;;;1.90;;
62903;SDS011;49000;50.698;13.322;2023-07-22T01:47:15;3.40;;;2.30;;
62903;SDS011;49000;50.698;13.322;2023-07-22T01:49:41;2.23;;;1.80;;
62903;SDS011;49000;50.698;13.322;2023-07-22T01:52:06;5.20;;;1.90;;
62903;SDS011;49000;50.698;13.322;2023-07-22T01:54:32;3.87;;;2.07;;
62903;SDS011;49000;50.698;13.322;2023-07-22T01:56:58;3.50;;;2.57;;
62903;SDS011;49000;50.698;13.322;2023-07-22T01:59:24;3.33;;;2.07;;
62903;SDS011;49000;50.698;13.322;2023-07-22T02:01:50;2.83;;;1.90;;
62903;SDS011;49000;50.698;13.322;2023-07-22T02:04:16;2.27;;;2.00;;
62903;SDS011;49000;50.698;13.322;2023-07-22T02:06:42;2.37;;;1.60;;
62903;SDS011;49000;50.698;13.322;2023-07-22T02:09:07;2.20;;;2.00;;
62903;SDS011;49000;50.698;13.322;2023-07-22T02:11:34;2.60;;;2.00;;
62903;SDS011;49000;50.698;13.322;2023-07-22T02:14:00;2.30;;;2.10;;
62903;SDS011;49000;50.698;13.322;2023-07-22T02:16:25;3.00;;;2.40;;
62903;SDS011;49000;50.698;13.322;2023-07-22T02:18:51;2.97;;;2.10;;
62903;SDS011;49000;50.698;13.322;2023-07-22T02:21:17;2.00;;;1.83;;
62903;SDS011;49000;50.698;13.322;2023-07-22T02:23:42;5.07;;;2.60;;
62903;SDS011;49000;50.698;13.322;2023-07-22T02:26:08;3.20;;;2.03;;
62903;SDS011;49000;50.698;13.322;2023-07-22T02:28:33;6.33;;;2.43;;
62903;SDS011;49000;50.698;13.322;2023-07-22T02:31:00;3.70;;;2.17;;
62903;SDS011;49000;50.698;13.322;2023-07-22T02:33:30;2.97;;;2.17;;
62903;SDS011;49000;50.698;13.322;2023-07-22T02:35:56;3.07;;;2.30;;
62903;SDS011;49000;50.698;13.322;2023-07-22T02:38:21;3.40;;;2.53;;
62903;SDS011;49000;50.698;13.322;2023-07-22T02:40:47;3.80;;;2.37;;
62903;SDS011;49000;50.698;13.322;2023-07-22T02:43:12;2.70;;;2.10;;
62903;SDS011;49000;50.698;13.322;2023-07-22T02:45:38;3.23;;;2.40;;
62903;SDS011;49000;50.698;13.322;2023-07-22T02:48:03;3.47;;;2.30;;
62903;SDS011;49000;50.698;13.322;2023-07-22T02:50:29;3.10;;;2.43;;
62903;SDS011;49000;50.698;13.322;2023-07-22T02:52:55;2.67;;;2.37;;
62903;SDS011;49000;50.698;13.322;2023-07-22T02:55:21;3.00;;;2.57;;
62903;SDS011;49000;50.698;13.322;2023-07-22T02:57:48;2.43;;;2.23;;
62903;SDS011;49000;50.698;13.322;2023-07-22T03:00:17;3.10;;;2.07;;
62903;SDS011;49000;50.698;13.322;2023-07-22T03:02:50;2.50;;;2.10;;
62903;SDS011;49000;50.698;13.322;2023-07-22T03:05:26;4.03;;;2.30;;
62903;SDS011;49000;50.698;13.322;2023-07-22T03:07:53;3.53;;;2.23;;
62903;SDS011;49000;50.698;13.322;2023-07-22T03:10:18;2.67;;;2.47;;
62903;SDS011;49000;50.698;13.322;2023-07-22T03:12:44;3.37;;;2.60;;
62903;SDS011;49000;50.698;13.322;2023-07-22T03:15:10;5.10;;;2.30;;
62903;SDS011;49000;50.698;13.322;2023-07-22T03:17:37;5.37;;;2.80;;
62903;SDS011;49000;50.698;13.322;2023-07-22T03:20:04;4.43;;;2.50;;
62903;SDS011;49000;50.698;13.322;2023-07-22T03:22:34;5.13;;;3.40;;
62903;SDS011;49000;50.698;13.322;2023-07-22T03:24:59;4.40;;;3.00;;
62903;SDS011;49000;50.698;13.322;2023-07-22T03:27:25;4.40;;;2.43;;
62903;SDS011;49000;50.698;13.322;2023-07-22T03:29:50;3.37;;;3.07;;
62903;SDS011;49000;50.698;13.322;2023-07-22T03:32:16;3.10;;;2.67;;
62903;SDS011;49000;50.698;13.322;2023-07-22T03:34:41;3.73;;;3.43;;
62903;SDS011;49000;50.698;13.322;2023-07-22T03:37:07;5.07;;;3.20;;
62903;SDS011;49000;50.698;13.322;2023-07-22T03:39:32;3.83;;;3.43;;
62903;SDS011;49000;50.698;13.322;2023-07-22T03:41:58;4.70;;;2.60;;
62903;SDS011;49000;50.698;13.322;2023-07-22T03:44:23;4.07;;;2.90;;
62903;SDS011;49000;50.698;13.322;2023-07-22T03:46:50;3.60;;;2.93;;
62903;SDS011;49000;50.698;13.322;2023-07-22T03:49:16;4.00;;;3.07;;
62903;SDS011;49000;50.698;13.322;2023-07-22T03:51:41;7.17;;;3.77;;
62903;SDS011;49000;50.698;13.322;2023-07-22T03:54:07;6.20;;;3.60;;
62903;SDS011;49000;50.698;13.322;2023-07-22T03:56:32;3.40;;;3.10;;
62903;SDS011;49000;50.698;13.322;2023-07-22T03:58:58;3.73;;;3.23;;
62903;SDS011;49000;50.698;13.322;2023-07-22T04:01:24;5.10;;;2.87;;
62903;SDS011;49000;50.698;13.322;2023-07-22T04:03:49;4.20;;;3.80;;
62903;SDS011;49000;50.698;13.322;2023-07-22T04:06:15;3.40;;;3.10;;
62903;SDS011;49000;50.698;13.322;2023-07-22T04:08:40;4.00;;;3.10;;
62903;SDS011;49000;50.698;13.322;2023-07-22T04:11:06;4.57;;;3.87;;
62903;SDS011;49000;50.698;13.322;2023-07-22T04:13:31;5.57;;;4.90;;
62903;SDS011;49000;50.698;13.322;2023-07-22T04:15:57;4.27;;;3.60;;
62903;SDS011;49000;50.698;13.322;2023-07-22T04:18:22;5.10;;;3.67;;
62903;SDS011;49000;50.698;13.322;2023-07-22T04:20:48;3.73;;;3.37;;
62903;SDS011;49000;50.698;13.322;2023-07-22T04:23:19;3.60;;;3.30;;
62903;SDS011;49000;50.698;13.322;2023-07-22T04:25:45;4.03;;;3.63;;
62903;SDS011;49000;50.698;13.322;2023-07-22T04:28:11;5.53;;;4.00;;
62903;SDS011;49000;50.698;13.322;2023-07-22T04:30:36;4.60;;;3.40;;
62903;SDS011;49000;50.698;13.322;2023-07-22T04:33:03;3.97;;;3.40;;
62903;SDS011;49000;50.698;13.322;2023-07-22T04:35:33;4.20;;;3.77;;
62903;SDS011;49000;50.698;13.322;2023-07-22T04:38:03;6.23;;;3.60;;
62903;SDS011;49000;50.698;13.322;2023-07-22T04:40:29;4.47;;;4.03;;
62903;SDS011;49000;50.698;13.322;2023-07-22T04:42:58;3.83;;;3.30;;
62903;SDS011;49000;50.698;13.322;2023-07-22T04:45:23;4.20;;;3.80;;
62903;SDS011;49000;50.698;13.322;2023-07-22T04:47:49;4.93;;;4.07;;
62903;SDS011;49000;50.698;13.322;2023-07-22T04:50:15;5.50;;;4.03;;
62903;SDS011;49000;50.698;13.322;2023-07-22T04:52:42;5.83;;;4.20;;
62903;SDS011;49000;50.698;13.322;2023-07-22T04:55:11;5.17;;;4.47;;
62903;SDS011;49000;50.698;13.322;2023-07-22T04:57:38;3.87;;;3.10;;
62903;SDS011;49000;50.698;13.322;2023-07-22T05:00:06;5.53;;;4.97;;
62903;SDS011;49000;50.698;13.322;2023-07-22T05:02:34;5.43;;;3.97;;
62903;SDS011;49000;50.698;13.322;2023-07-22T05:05:00;5.53;;;5.03;;
62903;SDS011;49000;50.698;13.322;2023-07-22T05:07:25;6.47;;;4.70;;
62903;SDS011;49000;50.698;13.322;2023-07-22T05:09:51;5.80;;;4.70;;
62903;SDS011;49000;50.698;13.322;2023-07-22T05:12:17;5.83;;;4.33;;
62903;SDS011;49000;50.698;13.322;2023-07-22T05:14:44;5.70;;;4.90;;
62903;SDS011;49000;50.698;13.322;2023-07-22T05:17:10;5.33;;;4.33;;
62903;SDS011;49000;50.698;13.322;2023-07-22T05:19:35;6.63;;;5.63;;
62903;SDS011;49000;50.698;13.322;2023-07-22T05:22:01;7.87;;;6.53;;
62903;SDS011;49000;50.698;13.322;2023-07-22T05:24:26;7.93;;;5.27;;
62903;SDS011;49000;50.698;13.322;2023-07-22T05:26:52;7.33;;;5.47;;
62903;SDS011;49000;50.698;13.322;2023-07-22T05:29:19;5.30;;;4.80;;
62903;SDS011;49000;50.698;13.322;2023-07-22T05:31:44;9.83;;;6.20;;
62903;SDS011;49000;50.698;13.322;2023-07-22T05:34:10;6.83;;;6.13;;
62903;SDS011;49000;50.698;13.322;2023-07-22T05:36:35;6.10;;;5.50;;
62903;SDS011;49000;50.698;13.322;2023-07-22T05:39:01;7.63;;;5.00;;
62903;SDS011;49000;50.698;13.322;2023-07-22T05:41:26;6.40;;;5.70;;
62903;SDS011;49000;50.698;13.322;2023-07-22T05:43:52;7.10;;;5.87;;
62903;SDS011;49000;50.698;13.322;2023-07-22T05:46:17;7.93;;;6.03;;
62903;SDS011;49000;50.698;13.322;2023-07-22T05:48:43;7.57;;;5.53;;
62903;SDS011;49000;50.698;13.322;2023-07-22T05:51:09;7.20;;;5.93;;
62903;SDS011;49000;50.698;13.322;2023-07-22T05:53:34;8.73;;;6.27;;
62903;SDS011;49000;50.698;13.322;2023-07-22T05:56:00;7.67;;;5.70;;
62903;SDS011;49000;50.698;13.322;2023-07-22T05:58:25;6.53;;;5.87;;
62903;SDS011;49000;50.698;13.322;2023-07-22T06:00:52;6.23;;;5.47;;
62903;SDS011;49000;50.698;13.322;2023-07-22T06:03:18;8.27;;;6.40;;
62903;SDS011;49000;50.698;13.322;2023-07-22T06:05:45;7.93;;;5.50;;
62903;SDS011;49000;50.698;13.322;2023-07-22T06:08:11;7.60;;;6.00;;
62903;SDS011;49000;50.698;13.322;2023-07-22T06:10:37;5.97;;;5.30;;
62903;SDS011;49000;50.698;13.322;2023-07-22T06:13:03;7.73;;;6.00;;
62903;SDS011;49000;50.698;13.322;2023-07-22T06:15:29;8.30;;;5.73;;
62903;SDS011;49000;50.698;13.322;2023-07-22T06:17:55;7.30;;;6.27;;
62903;SDS011;49000;50.698;13.322;2023-07-22T06:20:20;8.73;;;5.93;;
62903;SDS011;49000;50.698;13.322;2023-07-22T06:22:46;8.53;;;6.50;;
62903;SDS011;49000;50.698;13.322;2023-07-22T06:25:11;8.10;;;6.37;;
62903;SDS011;49000;50.698;13.322;2023-07-22T06:27:37;6.20;;;5.10;;
62903;SDS011;49000;50.698;13.322;2023-07-22T06:30:03;7.17;;;5.63;;
62903;SDS011;49000;50.698;13.322;2023-07-22T06:32:29;7.20;;;6.37;;
62903;SDS011;49000;50.698;13.322;2023-07-22T06:34:55;6.00;;;5.40;;
62903;SDS011;49000;50.698;13.322;2023-07-22T06:37:21;10.50;;;6.27;;
62903;SDS011;49000;50.698;13.322;2023-07-22T06:39:47;6.73;;;5.67;;
62903;SDS011;49000;50.698;13.322;2023-07-22T06:42:13;6.90;;;5.30;;
62903;SDS011;49000;50.698;13.322;2023-07-22T06:44:38;8.37;;;6.17;;
62903;SDS011;49000;50.698;13.322;2023-07-22T06:47:04;7.33;;;5.80;;
62903;SDS011;49000;50.698;13.322;2023-07-22T06:49:30;10.70;;;6.90;;
62903;SDS011;49000;50.698;13.322;2023-07-22T06:51:55;8.67;;;6.33;;
62903;SDS011;49000;50.698;13.322;2023-07-22T06:54:21;9.40;;;6.80;;
62903;SDS011;49000;50.698;13.322;2023-07-22T06:56:47;8.10;;;6.87;;
62903;SDS011;49000;50.698;13.322;2023-07-22T06:59:12;9.30;;;6.57;;
62903;SDS011;49000;50.698;13.322;2023-07-22T07:01:37;11.10;;;6.90;;
62903;SDS011;49000;50.698;13.322;2023-07-22T07:04:03;9.47;;;6.47;;
62903;SDS011;49000;50.698;13.322;2023-07-22T07:06:29;9.90;;;7.00;;
62903;SDS011;49000;50.698;13.322;2023-07-22T07:08:55;8.93;;;6.57;;
62903;SDS011;49000;50.698;13.322;2023-07-22T07:11:20;8.10;;;6.53;;
62903;SDS011;49000;50.698;13.322;2023-07-22T07:13:46;12.53;;;6.70;;
62903;SDS011;49000;50.698;13.322;2023-07-22T07:16:24;7.70;;;6.57;;
62903;SDS011;49000;50.698;13.322;2023-07-22T07:18:52;7.47;;;6.37;;
62903;SDS011;49000;50.698;13.322;2023-07-22T07:21:18;9.70;;;7.07;;
62903;SDS011;49000;50.698;13.322;2023-07-22T07:23:44;10.87;;;7.13;;
62903;SDS011;49000;50.698;13.322;2023-07-22T07:26:10;8.50;;;6.17;;
62903;SDS011;49000;50.698;13.322;2023-07-22T07:28:35;8.67;;;6.27;;
62903;SDS011;49000;50.698;13.322;2023-07-22T07:31:01;9.53;;;6.40;;
62903;SDS011;49000;50.698;13.322;2023-07-22T07:33:26;11.27;;;7.53;;
62903;SDS011;49000;50.698;13.322;2023-07-22T07:35:53;9.67;;;7.57;;
62903;SDS011;49000;50.698;13.322;2023-07-22T07:38:18;10.30;;;7.60;;
62903;SDS011;49000;50.698;13.322;2023-07-22T07:40:44;12.73;;;7.30;;
62903;SDS011;49000;50.698;13.322;2023-07-22T07:43:09;9.40;;;7.37;;
62903;SDS011;49000;50.698;13.322;2023-07-22T07:45:38;9.17;;;7.17;;
62903;SDS011;49000;50.698;13.322;2023-07-22T07:48:04;8.67;;;7.10;;
62903;SDS011;49000;50.698;13.322;2023-07-22T07:50:30;9.93;;;7.37;;
62903;SDS011;49000;50.698;13.322;2023-07-22T07:52:55;9.73;;;7.07;;
62903;SDS011;49000;50.698;13.322;2023-07-22T07:55:21;8.07;;;6.93;;
62903;SDS011;49000;50.698;13.322;2023-07-22T07:57:46;10.57;;;6.67;;
62903;SDS011;49000;50.698;13.322;2023-07-22T08:00:12;8.57;;;7.07;;
62903;SDS011;49000;50.698;13.322;2023-07-22T08:02:38;9.33;;;7.37;;
62903;SDS011;49000;50.698;13.322;2023-07-22T08:05:03;10.10;;;6.77;;
62903;SDS011;49000;50.698;13.322;2023-07-22T08:07:30;8.15;;;6.07;;
62903;SDS011;49000;50.698;13.322;2023-07-22T08:09:56;9.50;;;6.47;;
62903;SDS011;49000;50.698;13.322;2023-07-22T08:12:23;8.17;;;7.10;;
62903;SDS011;49000;50.698;13.322;2023-07-22T08:14:48;9.60;;;6.90;;
62903;SDS011;49000;50.698;13.322;2023-07-22T08:17:14;8.77;;;6.55;;
62903;SDS011;49000;50.698;13.322;2023-07-22T08:19:39;10.13;;;8.07;;
62903;SDS011;49000;50.698;13.322;2023-07-22T08:22:05;9.50;;;7.40;;
62903;SDS011;49000;50.698;13.322;2023-07-22T08:24:31;7.18;;;6.20;;
62903;SDS011;49000;50.698;13.322;2023-07-22T08:26:57;7.07;;;6.38;;
62903;SDS011;49000;50.698;13.322;2023-07-22T08:29:23;8.30;;;6.40;;
62903;SDS011;49000;50.698;13.322;2023-07-22T08:31:49;11.15;;;6.63;;
62903;SDS011;49000;50.698;13.322;2023-07-22T08:34:14;8.15;;;6.72;;
62903;SDS011;49000;50.698;13.322;2023-07-22T08:36:40;6.70;;;5.93;;
62903;SDS011;49000;50.698;13.322;2023-07-22T08:39:06;7.60;;;6.05;;
62903;SDS011;49000;50.698;13.322;2023-07-22T08:41:32;8.40;;;5.65;;
62903;SDS011;49000;50.698;13.322;2023-07-22T08:43:59;6.95;;;5.55;;
62903;SDS011;49000;50.698;13.322;2023-07-22T08:46:27;7.28;;;5.53;;
62903;SDS011;49000;50.698;13.322;2023-07-22T08:48:55;8.88;;;5.57;;
62903;SDS011;49000;50.698;13.322;2023-07-22T08:51:23;6.88;;;5.38;;
62903;SDS011;49000;50.698;13.322;2023-07-22T08:53:53;5.18;;;3.30;;
62903;SDS011;49000;50.698;13.322;2023-07-22T08:56:21;6.05;;;3.30;;
62903;SDS011;49000;50.698;13.322;2023-07-22T08:58:48;5.80;;;4.03;;
62903;SDS011;49000;50.698;13.322;2023-07-22T09:01:15;4.88;;;3.20;;
62903;SDS011;49000;50.698;13.322;2023-07-22T09:03:41;4.00;;;3.60;;
62903;SDS011;49000;50.698;13.322;2023-07-22T09:06:07;3.53;;;3.22;;
62903;SDS011;49000;50.698;13.322;2023-07-22T09:08:33;4.70;;;2.85;;
62903;SDS011;49000;50.698;13.322;2023-07-22T09:10:58;3.08;;;2.70;;
62903;SDS011;49000;50.698;13.322;2023-07-22T09:13:24;3.40;;;3.05;;
62903;SDS011;49000;50.698;13.322;2023-07-22T09:15:51;5.90;;;3.90;;
62903;SDS011;49000;50.698;13.322;2023-07-22T09:18:17;5.22;;;4.07;;
62903;SDS011;49000;50.698;13.322;2023-07-22T09:20:43;5.53;;;4.18;;
62903;SDS011;49000;50.698;13.322;2023-07-22T09:23:09;4.80;;;4.15;;
62903;SDS011;49000;50.698;13.322;2023-07-22T09:25:34;3.42;;;3.13;;
62903;SDS011;49000;50.698;13.322;2023-07-22T09:28:00;3.58;;;2.70;;
62903;SDS011;49000;50.698;13.322;2023-07-22T09:32:59;3.05;;;2.72;;
62903;SDS011;49000;50.698;13.322;2023-07-22T09:35:27;3.22;;;2.60;;
62903;SDS011;49000;50.698;13.322;2023-07-22T09:37:54;4.00;;;3.10;;
62903;SDS011;49000;50.698;13.322;2023-07-22T09:40:22;2.45;;;2.25;;
62903;SDS011;49000;50.698;13.322;2023-07-22T09:42:49;2.90;;;2.60;;
62903;SDS011;49000;50.698;13.322;2023-07-22T09:45:21;3.60;;;2.47;;
62903;SDS011;49000;50.698;13.322;2023-07-22T09:47:48;3.10;;;2.55;;
62903;SDS011;49000;50.698;13.322;2023-07-22T09:50:19;2.65;;;2.33;;
62903;SDS011;49000;50.698;13.322;2023-07-22T09:52:48;2.58;;;2.30;;
62903;SDS011;49000;50.698;13.322;2023-07-22T09:55:23;2.53;;;2.25;;
62903;SDS011;49000;50.698;13.322;2023-07-22T09:57:53;2.75;;;2.45;;
62903;SDS011;49000;50.698;13.322;2023-07-22T10:00:35;2.60;;;2.40;;
62903;SDS011;49000;50.698;13.322;2023-07-22T10:03:01;2.33;;;2.05;;
62903;SDS011;49000;50.698;13.322;2023-07-22T10:05:32;2.47;;;2.28;;
62903;SDS011;49000;50.698;13.322;2023-07-22T10:07:59;2.58;;;2.38;;
62903;SDS011;49000;50.698;13.322;2023-07-22T10:10:26;2.88;;;2.65;;
62903;SDS011;49000;50.698;13.322;2023-07-22T10:12:56;2.78;;;2.28;;
62903;SDS011;49000;50.698;13.322;2023-07-22T10:15:22;3.38;;;2.50;;
62903;SDS011;49000;50.698;13.322;2023-07-22T10:17:50;3.05;;;2.15;;
62903;SDS011;49000;50.698;13.322;2023-07-22T10:20:16;4.43;;;2.50;;
62903;SDS011;49000;50.698;13.322;2023-07-22T10:22:45;3.92;;;2.08;;
62903;SDS011;49000;50.698;13.322;2023-07-22T10:25:12;2.75;;;2.42;;
62903;SDS011;49000;50.698;13.322;2023-07-22T10:27:42;3.55;;;2.70;;
62903;SDS011;49000;50.698;13.322;2023-07-22T10:30:09;2.85;;;2.42;;
62903;SDS011;49000;50.698;13.322;2023-07-22T10:32:36;3.05;;;2.22;;
62903;SDS011;49000;50.698;13.322;2023-07-22T10:35:10;2.53;;;2.33;;
62903;SDS011;49000;50.698;13.322;2023-07-22T10:37:42;3.65;;;2.20;;
62903;SDS011;49000;50.698;13.322;2023-07-22T10:40:17;2.75;;;2.55;;
62903;SDS011;49000;50.698;13.322;2023-07-22T10:43:04;2.63;;;2.20;;
62903;SDS011;49000;50.698;13.322;2023-07-22T10:45:31;2.85;;;2.42;;
62903;SDS011;49000;50.698;13.322;2023-07-22T10:50:46;3.38;;;2.33;;
62903;SDS011;49000;50.698;13.322;2023-07-22T11:11:53;2.97;;;2.45;;
62903;SDS011;49000;50.698;13.322;2023-07-22T11:14:22;3.00;;;2.80;;
62903;SDS011;49000;50.698;13.322;2023-07-22T11:16:49;2.88;;;2.30;;
62903;SDS011;49000;50.698;13.322;2023-07-22T11:19:16;2.92;;;2.60;;
62903;SDS011;49000;50.698;13.322;2023-07-22T11:21:43;3.10;;;2.80;;
62903;SDS011;49000;50.698;13.322;2023-07-22T11:24:09;2.50;;;2.30;;
62903;SDS011;49000;50.698;13.322;2023-07-22T11:26:35;2.97;;;2.70;;
62903;SDS011;49000;50.698;13.322;2023-07-22T11:29:02;4.22;;;2.95;;
62903;SDS011;49000;50.698;13.322;2023-07-22T11:31:32;3.75;;;3.10;;
62903;SDS011;49000;50.698;13.322;2023-07-22T11:33:58;2.50;;;2.30;;
62903;SDS011;49000;50.698;13.322;2023-07-22T11:36:24;3.03;;;2.75;;
62903;SDS011;49000;50.698;13.322;2023-07-22T11:38:50;3.30;;;2.53;;
62903;SDS011;49000;50.698;13.322;2023-07-22T11:41:16;3.45;;;3.15;;
62903;SDS011;49000;50.698;13.322;2023-07-22T11:43:42;3.10;;;2.75;;
62903;SDS011;49000;50.698;13.322;2023-07-22T11:46:08;3.92;;;2.90;;
62903;SDS011;49000;50.698;13.322;2023-07-22T11:48:33;2.95;;;2.75;;
62903;SDS011;49000;50.698;13.322;2023-07-22T11:50:59;3.42;;;2.75;;
62903;SDS011;49000;50.698;13.322;2023-07-22T11:53:28;3.75;;;2.67;;
62903;SDS011;49000;50.698;13.322;2023-07-22T11:55:54;3.15;;;2.50;;
62903;SDS011;49000;50.698;13.322;2023-07-22T11:58:27;3.53;;;2.53;;
62903;SDS011;49000;50.698;13.322;2023-07-22T12:03:48;2.55;;;2.35;;
62903;SDS011;49000;50.698;13.322;2023-07-22T12:06:19;4.22;;;2.83;;
62903;SDS011;49000;50.698;13.322;2023-07-22T12:08:46;3.03;;;2.58;;
62903;SDS011;49000;50.698;13.322;2023-07-22T12:11:22;2.67;;;2.47;;
62903;SDS011;49000;50.698;13.322;2023-07-22T12:13:49;2.70;;;2.50;;
62903;SDS011;49000;50.698;13.322;2023-07-22T12:16:34;3.17;;;2.80;;
62903;SDS011;49000;50.698;13.322;2023-07-22T12:19:01;3.80;;;2.40;;
62903;SDS011;49000;50.698;13.322;2023-07-22T12:21:27;3.45;;;2.70;;
62903;SDS011;49000;50.698;13.322;2023-07-22T12:23:53;4.50;;;2.55;;
62903;SDS011;49000;50.698;13.322;2023-07-22T12:26:19;2.75;;;2.50;;
62903;SDS011;49000;50.698;13.322;2023-07-22T12:28:45;2.85;;;2.60;;
62903;SDS011;49000;50.698;13.322;2023-07-22T12:31:10;3.00;;;2.70;;
62903;SDS011;49000;50.698;13.322;2023-07-22T12:33:36;3.05;;;2.70;;
62903;SDS011;49000;50.698;13.322;2023-07-22T12:36:02;2.95;;;2.65;;
62903;SDS011;49000;50.698;13.322;2023-07-22T12:38:27;2.88;;;2.58;;
62903;SDS011;49000;50.698;13.322;2023-07-22T12:40:53;3.83;;;2.90;;
62903;SDS011;49000;50.698;13.322;2023-07-22T12:43:18;3.20;;;2.90;;
62903;SDS011;49000;50.698;13.322;2023-07-22T12:45:44;2.60;;;2.40;;
62903;SDS011;49000;50.698;13.322;2023-07-22T12:48:09;4.23;;;2.70;;
62903;SDS011;49000;50.698;13.322;2023-07-22T12:50:35;3.08;;;2.70;;
62903;SDS011;49000;50.698;13.322;2023-07-22T12:53:01;3.28;;;2.97;;
62903;SDS011;49000;50.698;13.322;2023-07-22T12:55:27;3.75;;;2.80;;
62903;SDS011;49000;50.698;13.322;2023-07-22T12:57:53;3.28;;;2.97;;
62903;SDS011;49000;50.698;13.322;2023-07-22T13:00:19;2.97;;;2.78;;
62903;SDS011;49000;50.698;13.322;2023-07-22T13:02:44;4.55;;;2.63;;
62903;SDS011;49000;50.698;13.322;2023-07-22T13:05:10;4.15;;;2.75;;
62903;SDS011;49000;50.698;13.322;2023-07-22T13:07:35;3.20;;;2.85;;
62903;SDS011;49000;50.698;13.322;2023-07-22T13:10:02;4.32;;;3.03;;
62903;SDS011;49000;50.698;13.322;2023-07-22T13:12:31;5.28;;;2.80;;
62903;SDS011;49000;50.698;13.322;2023-07-22T13:14:57;3.33;;;2.47;;
62903;SDS011;49000;50.698;13.322;2023-07-22T13:17:23;3.03;;;2.70;;
62903;SDS011;49000;50.698;13.322;2023-07-22T13:19:48;2.70;;;2.50;;
62903;SDS011;49000;50.698;13.322;2023-07-22T13:22:14;3.67;;;2.75;;
62903;SDS011;49000;50.698;13.322;2023-07-22T13:24:39;2.80;;;2.30;;
62903;SDS011;49000;50.698;13.322;2023-07-22T13:27:05;4.43;;;2.83;;
62903;SDS011;49000;50.698;13.322;2023-07-22T13:29:31;4.70;;;2.83;;
62903;SDS011;49000;50.698;13.322;2023-07-22T13:31:57;3.83;;;2.70;;
62903;SDS011;49000;50.698;13.322;2023-07-22T13:34:22;2.88;;;2.40;;
62903;SDS011;49000;50.698;13.322;2023-07-22T13:36:48;3.00;;;2.70;;
62903;SDS011;49000;50.698;13.322;2023-07-22T13:39:13;3.85;;;2.65;;
62903;SDS011;49000;50.698;13.322;2023-07-22T13:41:39;2.90;;;2.67;;
62903;SDS011;49000;50.698;13.322;2023-07-22T13:44:04;3.33;;;2.70;;
62903;SDS011;49000;50.698;13.322;2023-07-22T13:46:30;3.58;;;2.90;;
62903;SDS011;49000;50.698;13.322;2023-07-22T13:48:56;3.33;;;3.03;;
62903;SDS011;49000;50.698;13.322;2023-07-22T13:51:21;3.30;;;2.70;;
62903;SDS011;49000;50.698;13.322;2023-07-22T13:53:47;2.97;;;2.72;;
62903;SDS011;49000;50.698;13.322;2023-07-22T13:56:13;2.50;;;2.30;;
62903;SDS011;49000;50.698;13.322;2023-07-22T13:58:38;3.40;;;2.67;;
62903;SDS011;49000;50.698;13.322;2023-07-22T14:01:04;2.70;;;2.50;;
62903;SDS011;49000;50.698;13.322;2023-07-22T14:03:29;4.40;;;3.20;;
62903;SDS011;49000;50.698;13.322;2023-07-22T14:05:55;3.22;;;2.65;;
62903;SDS011;49000;50.698;13.322;2023-07-22T14:08:21;2.40;;;2.20;;
62903;SDS011;49000;50.698;13.322;2023-07-22T14:10:46;2.80;;;2.50;;
62903;SDS011;49000;50.698;13.322;2023-07-22T14:13:12;4.05;;;2.72;;
62903;SDS011;49000;50.698;13.322;2023-07-22T14:15:38;3.80;;;2.95;;
62903;SDS011;49000;50.698;13.322;2023-07-22T14:18:03;3.20;;;2.40;;
62903;SDS011;49000;50.698;13.322;2023-07-22T14:20:29;5.45;;;2.90;;
62903;SDS011;49000;50.698;13.322;2023-07-22T14:22:55;4.03;;;2.90;;
62903;SDS011;49000;50.698;13.322;2023-07-22T14:25:22;3.15;;;2.80;;
62903;SDS011;49000;50.698;13.322;2023-07-22T14:27:47;3.22;;;2.92;;
62903;SDS011;49000;50.698;13.322;2023-07-22T14:30:13;4.22;;;2.95;;
62903;SDS011;49000;50.698;13.322;2023-07-22T14:32:39;3.38;;;3.03;;
62903;SDS011;49000;50.698;13.322;2023-07-22T14:35:04;3.22;;;2.92;;
62903;SDS011;49000;50.698;13.322;2023-07-22T14:37:30;3.47;;;3.17;;
62903;SDS011;49000;50.698;13.322;2023-07-22T14:39:56;4.07;;;3.13;;
62903;SDS011;49000;50.698;13.322;2023-07-22T14:42:22;4.15;;;3.47;;
62903;SDS011;49000;50.698;13.322;2023-07-22T14:44:47;3.15;;;2.85;;
62903;SDS011;49000;50.698;13.322;2023-07-22T14:47:13;3.20;;;2.90;;
62903;SDS011;49000;50.698;13.322;2023-07-22T14:49:38;3.58;;;2.90;;
62903;SDS011;49000;50.698;13.322;2023-07-22T14:52:04;4.90;;;3.03;;
62903;SDS011;49000;50.698;13.322;2023-07-22T14:54:30;4.00;;;3.60;;
62903;SDS011;49000;50.698;13.322;2023-07-22T14:56:56;5.22;;;3.47;;